sensor_id;sensor_type;location;lat;lon;timestamp;pressure;altitude;pressure_sealevel;temperature;humidity
65013;BME280;51715;39.432;-77.518;2023-01-26T00:00:58;98460.21;;;9.03;45.59
65013;BME280;51715;39.432;-77.518;2023-01-26T00:03:26;98488.48;;;9.05;45.57
65013;BME280;51715;39.432;-77.518;2023-01-26T00:05:55;98486.08;;;9.22;45.37
65013;BME280;51715;39.432;-77.518;2023-01-26T00:08:23;98492.56;;;8.51;45.83
65013;BME280;51715;39.432;-77.518;2023-01-26T00:15:19;98456.97;;;9.05;45.35
65013;BME280;51715;39.432;-77.518;2023-01-26T00:17:47;98471.07;;;7.05;49.58
65013;BME280;51715;39.432;-77.518;2023-01-26T00:20:16;98461.02;;;7.48;49.27
65013;BME280;51715;39.432;-77.518;2023-01-26T00:22:44;98424.81;;;7.52;49.01
65013;BME280;51715;39.432;-77.518;2023-01-26T00:25:12;98415.99;;;8.07;48.28
65013;BME280;51715;39.432;-77.518;2023-01-26T00:27:40;98396.01;;;8.04;47.87
65013;BME280;51715;39.432;-77.518;2023-01-26T00:30:09;98427.43;;;7.58;49.34
65013;BME280;51715;39.432;-77.518;2023-01-26T00:32:38;98427.95;;;7.98;48.60
65013;BME280;51715;39.432;-77.518;2023-01-26T00:35:07;98421.41;;;7.97;48.23
65013;BME280;51715;39.432;-77.518;2023-01-26T00:37:36;98423.28;;;7.83;48.73
65013;BME280;51715;39.432;-77.518;2023-01-26T00:40:05;98413.76;;;8.30;48.35
65013;BME280;51715;39.432;-77.518;2023-01-26T00:42:34;98431.21;;;6.98;51.32
65013;BME280;51715;39.432;-77.518;2023-01-26T00:45:03;98422.39;;;7.20;51.03
65013;BME280;51715;39.432;-77.518;2023-01-26T00:47:31;98412.47;;;7.50;49.12
65013;BME280;51715;39.432;-77.518;2023-01-26T00:50:00;98406.05;;;6.89;50.75
65013;BME280;51715;39.432;-77.518;2023-01-26T00:52:28;98394.98;;;7.62;49.40
65013;BME280;51715;39.432;-77.518;2023-01-26T00:54:57;98367.35;;;7.75;49.53
65013;BME280;51715;39.432;-77.518;2023-01-26T00:57:25;98356.79;;;8.00;48.73
65013;BME280;51715;39.432;-77.518;2023-01-26T00:59:53;98358.86;;;8.19;47.83
65013;BME280;51715;39.432;-77.518;2023-01-26T01:02:22;98340.56;;;8.40;47.72
65013;BME280;51715;39.432;-77.518;2023-01-26T01:04:50;98338.10;;;8.64;47.28
65013;BME280;51715;39.432;-77.518;2023-01-26T01:07:19;98338.38;;;8.20;47.07
65013;BME280;51715;39.432;-77.518;2023-01-26T01:09:48;98323.00;;;8.07;47.90
65013;BME280;51715;39.432;-77.518;2023-01-26T01:12:17;98312.11;;;8.70;47.03
65013;BME280;51715;39.432;-77.518;2023-01-26T01:14:46;98305.74;;;8.31;46.75
65013;BME280;51715;39.432;-77.518;2023-01-26T01:17:14;98277.79;;;8.69;46.70
65013;BME280;51715;39.432;-77.518;2023-01-26T01:19:42;98270.77;;;8.68;46.63
65013;BME280;51715;39.432;-77.518;2023-01-26T01:22:11;98271.68;;;8.95;46.40
65013;BME280;51715;39.432;-77.518;2023-01-26T01:24:39;98280.05;;;8.61;46.83
65013;BME280;51715;39.432;-77.518;2023-01-26T01:27:08;98256.63;;;8.64;46.84
65013;BME280;51715;39.432;-77.518;2023-01-26T01:29:36;98243.14;;;8.64;46.63
65013;BME280;51715;39.432;-77.518;2023-01-26T01:32:05;98252.96;;;8.74;46.45
65013;BME280;51715;39.432;-77.518;2023-01-26T01:34:34;98262.29;;;8.66;46.91
65013;BME280;51715;39.432;-77.518;2023-01-26T01:37:02;98266.55;;;8.78;46.87
65013;BME280;51715;39.432;-77.518;2023-01-26T01:39:30;98259.49;;;8.98;46.48
65013;BME280;51715;39.432;-77.518;2023-01-26T01:41:59;98248.23;;;8.65;46.60
65013;BME280;51715;39.432;-77.518;2023-01-26T01:44:28;98244.30;;;8.98;46.04
65013;BME280;51715;39.432;-77.518;2023-01-26T01:46:59;98239.19;;;9.07;46.11
65013;BME280;51715;39.432;-77.518;2023-01-26T01:49:30;98235.31;;;9.18;46.03
65013;BME280;51715;39.432;-77.518;2023-01-26T01:52:03;98240.75;;;9.28;46.06
65013;BME280;51715;39.432;-77.518;2023-01-26T01:54:36;98236.47;;;9.36;45.90
65013;BME280;51715;39.432;-77.518;2023-01-26T01:57:08;98234.67;;;9.40;45.62
65013;BME280;51715;39.432;-77.518;2023-01-26T01:59:38;98224.74;;;9.25;45.56
65013;BME280;51715;39.432;-77.518;2023-01-26T02:02:07;98213.15;;;9.70;45.40
65013;BME280;51715;39.432;-77.518;2023-01-26T02:04:37;98213.25;;;9.34;45.44
65013;BME280;51715;39.432;-77.518;2023-01-26T02:07:06;98198.52;;;9.54;45.64
65013;BME280;51715;39.432;-77.518;2023-01-26T02:09:36;98190.79;;;9.42;45.67
65013;BME280;51715;39.432;-77.518;2023-01-26T02:12:09;98179.95;;;9.27;45.87
65013;BME280;51715;39.432;-77.518;2023-01-26T02:14:40;98172.52;;;9.49;46.03
65013;BME280;51715;39.432;-77.518;2023-01-26T02:17:14;98168.92;;;9.25;46.17
65013;BME280;51715;39.432;-77.518;2023-01-26T02:19:48;98155.95;;;9.38;46.06
65013;BME280;51715;39.432;-77.518;2023-01-26T02:22:29;98145.93;;;9.73;45.88
65013;BME280;51715;39.432;-77.518;2023-01-26T02:25:05;98132.36;;;9.30;45.85
65013;BME280;51715;39.432;-77.518;2023-01-26T02:27:35;98132.03;;;9.32;46.02
65013;BME280;51715;39.432;-77.518;2023-01-26T02:30:05;98138.87;;;9.56;46.02
65013;BME280;51715;39.432;-77.518;2023-01-26T02:32:34;98149.52;;;9.47;45.98
65013;BME280;51715;39.432;-77.518;2023-01-26T02:35:04;98142.08;;;9.53;46.21
65013;BME280;51715;39.432;-77.518;2023-01-26T02:37:32;98135.51;;;9.36;46.06
65013;BME280;51715;39.432;-77.518;2023-01-26T02:40:04;98141.80;;;9.43;45.98
65013;BME280;51715;39.432;-77.518;2023-01-26T05:04:07;98078.01;;;7.21;47.66
65013;BME280;51715;39.432;-77.518;2023-01-26T05:06:36;98080.93;;;7.30;47.59
65013;BME280;51715;39.432;-77.518;2023-01-26T05:09:05;98072.35;;;7.78;47.13
65013;BME280;51715;39.432;-77.518;2023-01-26T05:11:34;98062.25;;;8.13;46.50
65013;BME280;51715;39.432;-77.518;2023-01-26T05:14:02;98064.30;;;8.47;46.42
65013;BME280;51715;39.432;-77.518;2023-01-26T05:16:31;98051.04;;;8.26;46.57
65013;BME280;51715;39.432;-77.518;2023-01-26T05:19:00;98052.70;;;8.14;46.54
65013;BME280;51715;39.432;-77.518;2023-01-26T05:21:28;98060.47;;;7.97;46.75
65013;BME280;51715;39.432;-77.518;2023-01-26T05:23:56;98059.08;;;7.89;46.27
65013;BME280;51715;39.432;-77.518;2023-01-26T05:26:25;98062.75;;;7.72;46.73
65013;BME280;51715;39.432;-77.518;2023-01-26T05:28:52;98050.27;;;7.93;46.35
65013;BME280;51715;39.432;-77.518;2023-01-26T05:31:21;98045.79;;;7.77;46.18
65013;BME280;51715;39.432;-77.518;2023-01-26T05:33:50;98040.47;;;7.49;46.02
65013;BME280;51715;39.432;-77.518;2023-01-26T05:36:17;98041.73;;;7.59;46.23
65013;BME280;51715;39.432;-77.518;2023-01-26T05:38:46;98053.01;;;7.13;46.74
65013;BME280;51715;39.432;-77.518;2023-01-26T05:41:15;98056.47;;;7.04;47.01
65013;BME280;51715;39.432;-77.518;2023-01-26T05:43:42;98061.21;;;7.45;46.69
65013;BME280;51715;39.432;-77.518;2023-01-26T05:46:11;98065.03;;;7.86;46.41
65013;BME280;51715;39.432;-77.518;2023-01-26T05:48:39;98072.09;;;7.85;45.82
65013;BME280;51715;39.432;-77.518;2023-01-26T05:51:07;98064.19;;;7.73;46.27
65013;BME280;51715;39.432;-77.518;2023-01-26T05:53:35;98060.63;;;7.68;45.70
65013;BME280;51715;39.432;-77.518;2023-01-26T05:56:04;98061.28;;;8.10;45.58
65013;BME280;51715;39.432;-77.518;2023-01-26T05:58:32;98071.22;;;7.82;45.95
65013;BME280;51715;39.432;-77.518;2023-01-26T06:01:04;98062.14;;;7.80;46.09
65013;BME280;51715;39.432;-77.518;2023-01-26T06:03:31;98058.05;;;7.45;46.18
65013;BME280;51715;39.432;-77.518;2023-01-26T06:06:00;98061.89;;;7.56;46.81
65013;BME280;51715;39.432;-77.518;2023-01-26T06:08:28;98060.22;;;7.36;47.12
65013;BME280;51715;39.432;-77.518;2023-01-26T06:10:58;98051.30;;;7.25;47.03
65013;BME280;51715;39.432;-77.518;2023-01-26T06:13:27;98046.14;;;7.35;46.99
65013;BME280;51715;39.432;-77.518;2023-01-26T06:15:56;98050.81;;;7.51;46.82
65013;BME280;51715;39.432;-77.518;2023-01-26T06:18:27;98066.06;;;6.98;47.12
65013;BME280;51715;39.432;-77.518;2023-01-26T06:20:58;98075.07;;;7.13;46.48
65013;BME280;51715;39.432;-77.518;2023-01-26T06:23:26;98077.88;;;7.47;46.36
65013;BME280;51715;39.432;-77.518;2023-01-26T06:25:58;98066.59;;;7.32;46.28
65013;BME280;51715;39.432;-77.518;2023-01-26T06:28:29;98061.57;;;7.44;46.60
65013;BME280;51715;39.432;-77.518;2023-01-26T06:31:00;98056.25;;;7.11;46.91
65013;BME280;51715;39.432;-77.518;2023-01-26T06:33:30;98059.26;;;7.16;47.20
65013;BME280;51715;39.432;-77.518;2023-01-26T06:36:01;98072.64;;;7.06;46.97
65013;BME280;51715;39.432;-77.518;2023-01-26T06:38:29;98073.46;;;6.72;46.87
65013;BME280;51715;39.432;-77.518;2023-01-26T06:40:59;98084.97;;;6.89;46.82
65013;BME280;51715;39.432;-77.518;2023-01-26T06:43:28;98089.86;;;7.10;46.71
65013;BME280;51715;39.432;-77.518;2023-01-26T06:45:57;98100.92;;;7.02;46.78
65013;BME280;51715;39.432;-77.518;2023-01-26T06:48:26;98101.21;;;7.01;46.64
65013;BME280;51715;39.432;-77.518;2023-01-26T06:50:57;98101.69;;;6.82;46.68
65013;BME280;51715;39.432;-77.518;2023-01-26T06:53:33;98101.35;;;6.73;47.76
65013;BME280;51715;39.432;-77.518;2023-01-26T06:56:04;98095.53;;;6.37;47.73
65013;BME280;51715;39.432;-77.518;2023-01-26T06:58:33;98094.49;;;6.69;47.29
65013;BME280;51715;39.432;-77.518;2023-01-26T07:01:02;98097.41;;;6.81;46.67
65013;BME280;51715;39.432;-77.518;2023-01-26T07:03:31;98101.04;;;6.64;46.55
65013;BME280;51715;39.432;-77.518;2023-01-26T07:06:00;98096.89;;;6.80;46.39
65013;BME280;51715;39.432;-77.518;2023-01-26T07:08:29;98094.47;;;6.70;46.24
65013;BME280;51715;39.432;-77.518;2023-01-26T07:10:57;98095.28;;;6.72;46.38
65013;BME280;51715;39.432;-77.518;2023-01-26T07:13:25;98093.62;;;6.34;46.18
65013;BME280;51715;39.432;-77.518;2023-01-26T07:16:00;98097.34;;;6.98;45.76
65013;BME280;51715;39.432;-77.518;2023-01-26T07:18:29;98103.35;;;7.02;45.71
65013;BME280;51715;39.432;-77.518;2023-01-26T07:21:00;98103.81;;;6.54;45.83
65013;BME280;51715;39.432;-77.518;2023-01-26T07:23:28;98110.32;;;6.66;45.65
65013;BME280;51715;39.432;-77.518;2023-01-26T07:25:57;98108.96;;;6.52;46.41
65013;BME280;51715;39.432;-77.518;2023-01-26T07:28:25;98123.47;;;6.26;46.91
65013;BME280;51715;39.432;-77.518;2023-01-26T07:30:57;98124.58;;;6.40;46.87
65013;BME280;51715;39.432;-77.518;2023-01-26T07:33:25;98114.94;;;6.16;47.52
65013;BME280;51715;39.432;-77.518;2023-01-26T07:35:56;98117.08;;;6.30;47.26
65013;BME280;51715;39.432;-77.518;2023-01-26T07:38:25;98119.95;;;5.68;48.36
65013;BME280;51715;39.432;-77.518;2023-01-26T07:40:53;98118.70;;;5.57;49.63
65013;BME280;51715;39.432;-77.518;2023-01-26T07:43:22;98121.01;;;5.13;49.93
65013;BME280;51715;39.432;-77.518;2023-01-26T07:45:52;98117.58;;;4.58;50.92
65013;BME280;51715;39.432;-77.518;2023-01-26T07:48:22;98122.66;;;5.29;49.03
65013;BME280;51715;39.432;-77.518;2023-01-26T07:50:51;98129.09;;;5.66;48.68
65013;BME280;51715;39.432;-77.518;2023-01-26T07:53:19;98121.34;;;5.31;48.53
65013;BME280;51715;39.432;-77.518;2023-01-26T07:55:47;98132.28;;;5.41;48.77
65013;BME280;51715;39.432;-77.518;2023-01-26T07:58:16;98128.99;;;4.95;50.15
65013;BME280;51715;39.432;-77.518;2023-01-26T08:00:45;98137.66;;;5.72;48.64
65013;BME280;51715;39.432;-77.518;2023-01-26T08:03:14;98128.25;;;5.27;48.90
65013;BME280;51715;39.432;-77.518;2023-01-26T08:05:42;98144.44;;;4.93;49.77
65013;BME280;51715;39.432;-77.518;2023-01-26T08:08:09;98152.51;;;5.09;49.50
65013;BME280;51715;39.432;-77.518;2023-01-26T08:10:38;98150.65;;;4.43;51.96
65013;BME280;51715;39.432;-77.518;2023-01-26T08:13:07;98159.69;;;4.94;50.60
65013;BME280;51715;39.432;-77.518;2023-01-26T08:15:35;98165.80;;;5.17;49.58
65013;BME280;51715;39.432;-77.518;2023-01-26T08:18:03;98167.13;;;4.78;50.54
65013;BME280;51715;39.432;-77.518;2023-01-26T08:20:31;98180.27;;;5.13;49.36
65013;BME280;51715;39.432;-77.518;2023-01-26T08:22:58;98184.87;;;4.31;51.10
65013;BME280;51715;39.432;-77.518;2023-01-26T08:25:27;98188.47;;;5.03;50.77
65013;BME280;51715;39.432;-77.518;2023-01-26T08:27:56;98186.85;;;5.14;50.52
65013;BME280;51715;39.432;-77.518;2023-01-26T08:30:24;98201.13;;;5.19;49.76
65013;BME280;51715;39.432;-77.518;2023-01-26T08:32:53;98200.96;;;5.52;49.41
65013;BME280;51715;39.432;-77.518;2023-01-26T08:35:22;98195.51;;;4.89;51.08
65013;BME280;51715;39.432;-77.518;2023-01-26T08:37:49;98200.10;;;5.31;50.38
65013;BME280;51715;39.432;-77.518;2023-01-26T08:40:17;98189.69;;;5.09;50.53
65013;BME280;51715;39.432;-77.518;2023-01-26T08:42:46;98192.45;;;5.34;51.53
65013;BME280;51715;39.432;-77.518;2023-01-26T08:45:15;98196.16;;;5.37;50.92
65013;BME280;51715;39.432;-77.518;2023-01-26T08:47:43;98204.59;;;5.57;51.14
65013;BME280;51715;39.432;-77.518;2023-01-26T08:50:11;98201.31;;;5.78;50.32
65013;BME280;51715;39.432;-77.518;2023-01-26T08:52:39;98207.48;;;6.01;50.27
65013;BME280;51715;39.432;-77.518;2023-01-26T08:55:09;98213.97;;;6.38;49.54
65013;BME280;51715;39.432;-77.518;2023-01-26T08:57:37;98214.58;;;6.58;48.96
65013;BME280;51715;39.432;-77.518;2023-01-26T09:00:07;98218.87;;;7.02;48.21
65013;BME280;51715;39.432;-77.518;2023-01-26T09:02:35;98226.06;;;6.75;48.07
65013;BME280;51715;39.432;-77.518;2023-01-26T09:05:04;98232.74;;;6.87;47.54
65013;BME280;51715;39.432;-77.518;2023-01-26T09:07:33;98237.30;;;7.04;47.19
65013;BME280;51715;39.432;-77.518;2023-01-26T09:10:01;98237.09;;;5.72;48.93
65013;BME280;51715;39.432;-77.518;2023-01-26T09:12:28;98235.23;;;6.38;48.42
65013;BME280;51715;39.432;-77.518;2023-01-26T09:14:56;98239.74;;;6.57;48.20
65013;BME280;51715;39.432;-77.518;2023-01-26T09:17:24;98240.60;;;6.47;48.23
65013;BME280;51715;39.432;-77.518;2023-01-26T09:19:52;98248.90;;;6.61;47.84
65013;BME280;51715;39.432;-77.518;2023-01-26T09:22:20;98243.44;;;5.84;48.06
65013;BME280;51715;39.432;-77.518;2023-01-26T09:24:49;98252.02;;;6.26;47.65
65013;BME280;51715;39.432;-77.518;2023-01-26T09:27:17;98259.40;;;5.48;48.60
65013;BME280;51715;39.432;-77.518;2023-01-26T09:29:45;98264.77;;;6.31;48.28
65013;BME280;51715;39.432;-77.518;2023-01-26T09:32:12;98268.57;;;6.28;47.43
65013;BME280;51715;39.432;-77.518;2023-01-26T09:34:40;98270.93;;;6.77;47.24
65013;BME280;51715;39.432;-77.518;2023-01-26T09:37:09;98278.06;;;6.17;47.23
65013;BME280;51715;39.432;-77.518;2023-01-26T09:39:37;98274.33;;;6.38;46.55
65013;BME280;51715;39.432;-77.518;2023-01-26T09:42:19;98276.46;;;6.77;45.32
65013;BME280;51715;39.432;-77.518;2023-01-26T09:44:59;98278.60;;;6.98;44.93
65013;BME280;51715;39.432;-77.518;2023-01-26T09:47:35;98277.89;;;7.31;43.99
65013;BME280;51715;39.432;-77.518;2023-01-26T09:50:20;98277.11;;;6.78;43.44
65013;BME280;51715;39.432;-77.518;2023-01-26T09:52:54;98279.81;;;7.17;42.64
65013;BME280;51715;39.432;-77.518;2023-01-26T09:55:24;98276.27;;;7.16;42.32
65013;BME280;51715;39.432;-77.518;2023-01-26T09:57:58;98287.43;;;6.57;41.62
65013;BME280;51715;39.432;-77.518;2023-01-26T10:00:31;98288.46;;;6.32;42.36
65013;BME280;51715;39.432;-77.518;2023-01-26T10:03:12;98288.48;;;5.93;42.39
65013;BME280;51715;39.432;-77.518;2023-01-26T10:05:48;98296.59;;;6.43;42.38
65013;BME280;51715;39.432;-77.518;2023-01-26T10:08:21;98301.54;;;5.74;41.69
65013;BME280;51715;39.432;-77.518;2023-01-26T10:10:53;98308.12;;;5.93;42.13
65013;BME280;51715;39.432;-77.518;2023-01-26T10:13:25;98306.03;;;5.35;42.37
65013;BME280;51715;39.432;-77.518;2023-01-26T10:15:57;98308.90;;;5.50;42.96
65013;BME280;51715;39.432;-77.518;2023-01-26T10:18:28;98319.17;;;6.02;42.19
65013;BME280;51715;39.432;-77.518;2023-01-26T10:21:01;98324.29;;;6.08;41.46
65013;BME280;51715;39.432;-77.518;2023-01-26T10:23:32;98329.41;;;6.10;42.06
65013;BME280;51715;39.432;-77.518;2023-01-26T10:26:10;98323.52;;;5.68;41.98
65013;BME280;51715;39.432;-77.518;2023-01-26T10:28:41;98322.85;;;6.91;41.33
65013;BME280;51715;39.432;-77.518;2023-01-26T10:31:14;98327.94;;;6.87;40.51
65013;BME280;51715;39.432;-77.518;2023-01-26T10:33:49;98330.51;;;6.77;40.35
65013;BME280;51715;39.432;-77.518;2023-01-26T10:36:17;98336.62;;;6.54;40.29
65013;BME280;51715;39.432;-77.518;2023-01-26T10:38:45;98335.79;;;5.94;40.39
65013;BME280;51715;39.432;-77.518;2023-01-26T10:41:24;98348.40;;;5.12;43.38
65013;BME280;51715;39.432;-77.518;2023-01-26T10:43:56;98338.57;;;4.76;43.31
65013;BME280;51715;39.432;-77.518;2023-01-26T10:46:29;98349.10;;;5.92;42.29
65013;BME280;51715;39.432;-77.518;2023-01-26T10:49:00;98345.20;;;6.08;40.80
65013;BME280;51715;39.432;-77.518;2023-01-26T10:51:30;98356.58;;;6.36;41.09
65013;BME280;51715;39.432;-77.518;2023-01-26T10:54:31;98358.01;;;6.92;39.95
65013;BME280;51715;39.432;-77.518;2023-01-26T10:57:00;98362.25;;;7.19;39.02
65013;BME280;51715;39.432;-77.518;2023-01-26T10:59:33;98361.50;;;6.53;40.22
65013;BME280;51715;39.432;-77.518;2023-01-26T11:02:21;98366.50;;;6.62;39.29
65013;BME280;51715;39.432;-77.518;2023-01-26T11:05:21;98374.52;;;6.82;40.15
65013;BME280;51715;39.432;-77.518;2023-01-26T11:07:51;98378.77;;;7.00;39.34
65013;BME280;51715;39.432;-77.518;2023-01-26T11:10:28;98378.54;;;6.15;39.82
65013;BME280;51715;39.432;-77.518;2023-01-26T11:13:12;98380.44;;;6.12;39.99
65013;BME280;51715;39.432;-77.518;2023-01-26T11:15:43;98384.66;;;6.28;40.12
65013;BME280;51715;39.432;-77.518;2023-01-26T11:18:24;98388.86;;;5.46;41.08
65013;BME280;51715;39.432;-77.518;2023-01-26T11:21:00;98394.38;;;6.04;40.46
65013;BME280;51715;39.432;-77.518;2023-01-26T11:23:43;98399.20;;;6.08;39.74
65013;BME280;51715;39.432;-77.518;2023-01-26T11:26:25;98412.61;;;5.61;39.84
65013;BME280;51715;39.432;-77.518;2023-01-26T11:29:09;98414.90;;;5.98;39.39
65013;BME280;51715;39.432;-77.518;2023-01-26T11:31:49;98415.79;;;4.77;41.75
65013;BME280;51715;39.432;-77.518;2023-01-26T11:34:28;98422.61;;;5.82;40.56
65013;BME280;51715;39.432;-77.518;2023-01-26T11:37:08;98429.41;;;5.95;39.65
65013;BME280;51715;39.432;-77.518;2023-01-26T11:39:53;98432.07;;;6.14;39.56
65013;BME280;51715;39.432;-77.518;2023-01-26T11:42:28;98433.77;;;6.45;38.63
65013;BME280;51715;39.432;-77.518;2023-01-26T11:45:08;98436.41;;;5.76;39.32
65013;BME280;51715;39.432;-77.518;2023-01-26T11:47:56;98446.90;;;6.25;39.13
65013;BME280;51715;39.432;-77.518;2023-01-26T11:50:34;98440.94;;;6.51;38.08
65013;BME280;51715;39.432;-77.518;2023-01-26T11:53:20;98456.99;;;6.36;38.64
65013;BME280;51715;39.432;-77.518;2023-01-26T11:55:59;98459.56;;;6.51;38.20
65013;BME280;51715;39.432;-77.518;2023-01-26T11:58:34;98463.81;;;6.09;38.36
65013;BME280;51715;39.432;-77.518;2023-01-26T12:01:23;98471.08;;;6.76;37.52
65013;BME280;51715;39.432;-77.518;2023-01-26T12:03:53;98460.03;;;5.64;38.74
65013;BME280;51715;39.432;-77.518;2023-01-26T12:06:27;98476.25;;;6.13;38.16
65013;BME280;51715;39.432;-77.518;2023-01-26T12:09:01;98478.48;;;6.68;37.77
65013;BME280;51715;39.432;-77.518;2023-01-26T12:11:36;98487.54;;;6.80;37.33
65013;BME280;51715;39.432;-77.518;2023-01-26T12:14:15;98494.45;;;6.46;38.44
65013;BME280;51715;39.432;-77.518;2023-01-26T12:16:57;98500.19;;;6.05;38.91
65013;BME280;51715;39.432;-77.518;2023-01-26T12:19:40;98502.73;;;5.79;38.77
65013;BME280;51715;39.432;-77.518;2023-01-26T12:22:14;98509.42;;;6.70;38.21
65013;BME280;51715;39.432;-77.518;2023-01-26T12:24:51;98507.68;;;6.28;38.17
65013;BME280;51715;39.432;-77.518;2023-01-26T12:27:25;98510.25;;;6.35;38.29
65013;BME280;51715;39.432;-77.518;2023-01-26T12:30:00;98524.61;;;5.53;39.53
65013;BME280;51715;39.432;-77.518;2023-01-26T12:32:31;98527.58;;;5.21;40.81
65013;BME280;51715;39.432;-77.518;2023-01-26T12:35:00;98535.06;;;4.88;41.39
65013;BME280;51715;39.432;-77.518;2023-01-26T12:37:39;98535.59;;;5.15;40.57
65013;BME280;51715;39.432;-77.518;2023-01-26T12:40:22;98540.74;;;5.88;39.79
65013;BME280;51715;39.432;-77.518;2023-01-26T12:43:01;98547.64;;;5.77;39.48
65013;BME280;51715;39.432;-77.518;2023-01-26T12:45:38;98562.06;;;5.60;38.96
65013;BME280;51715;39.432;-77.518;2023-01-26T12:48:22;98572.06;;;5.61;39.44
65013;BME280;51715;39.432;-77.518;2023-01-26T12:50:59;98581.51;;;6.12;38.67
65013;BME280;51715;39.432;-77.518;2023-01-26T12:53:32;98584.89;;;6.40;38.52
65013;BME280;51715;39.432;-77.518;2023-01-26T12:56:16;98603.02;;;6.74;37.28
65013;BME280;51715;39.432;-77.518;2023-01-26T12:58:50;98606.05;;;6.55;37.41
65013;BME280;51715;39.432;-77.518;2023-01-26T13:01:22;98614.01;;;6.64;37.34
65013;BME280;51715;39.432;-77.518;2023-01-26T13:03:54;98617.14;;;6.50;37.22
65013;BME280;51715;39.432;-77.518;2023-01-26T13:06:24;98621.26;;;6.29;38.05
65013;BME280;51715;39.432;-77.518;2023-01-26T13:09:12;98625.74;;;6.73;37.21
65013;BME280;51715;39.432;-77.518;2023-01-26T13:11:49;98620.65;;;7.51;35.64
65013;BME280;51715;39.432;-77.518;2023-01-26T13:14:28;98623.42;;;7.30;35.94
65013;BME280;51715;39.432;-77.518;2023-01-26T13:16:57;98634.04;;;6.23;37.88
65013;BME280;51715;39.432;-77.518;2023-01-26T13:20:22;98643.15;;;6.11;38.14
65013;BME280;51715;39.432;-77.518;2023-01-26T13:22:51;98637.61;;;5.96;38.70
65013;BME280;51715;39.432;-77.518;2023-01-26T13:25:28;98640.78;;;6.56;37.81
65013;BME280;51715;39.432;-77.518;2023-01-26T13:27:59;98644.57;;;6.20;39.11
65013;BME280;51715;39.432;-77.518;2023-01-26T13:30:38;98644.30;;;6.72;37.20
65013;BME280;51715;39.432;-77.518;2023-01-26T13:33:15;98652.19;;;6.72;37.33
65013;BME280;51715;39.432;-77.518;2023-01-26T13:35:46;98649.81;;;5.88;38.50
65013;BME280;51715;39.432;-77.518;2023-01-26T13:38:20;98649.11;;;6.96;37.07
65013;BME280;51715;39.432;-77.518;2023-01-26T13:40:51;98665.01;;;7.91;35.56
65013;BME280;51715;39.432;-77.518;2023-01-26T13:43:27;98670.18;;;7.66;35.55
65013;BME280;51715;39.432;-77.518;2023-01-26T13:46:06;98677.22;;;7.62;35.39
65013;BME280;51715;39.432;-77.518;2023-01-26T13:48:42;98676.37;;;7.88;35.23
65013;BME280;51715;39.432;-77.518;2023-01-26T13:51:15;98686.02;;;7.71;35.12
65013;BME280;51715;39.432;-77.518;2023-01-26T13:53:47;98690.40;;;7.80;34.75
65013;BME280;51715;39.432;-77.518;2023-01-26T13:56:27;98695.48;;;7.54;35.37
65013;BME280;51715;39.432;-77.518;2023-01-26T13:59:06;98698.14;;;8.21;34.62
65013;BME280;51715;39.432;-77.518;2023-01-26T14:01:42;98702.78;;;8.30;34.37
65013;BME280;51715;39.432;-77.518;2023-01-26T14:04:15;98704.64;;;8.59;34.14
65013;BME280;51715;39.432;-77.518;2023-01-26T14:06:47;98706.63;;;8.47;34.78
65013;BME280;51715;39.432;-77.518;2023-01-26T14:09:18;98709.93;;;8.15;34.72
65013;BME280;51715;39.432;-77.518;2023-01-26T14:11:55;98716.74;;;7.86;35.07
65013;BME280;51715;39.432;-77.518;2023-01-26T14:14:27;98720.52;;;7.84;35.37
65013;BME280;51715;39.432;-77.518;2023-01-26T14:16:58;98718.20;;;8.17;35.37
65013;BME280;51715;39.432;-77.518;2023-01-26T14:19:27;98724.43;;;7.19;36.51
65013;BME280;51715;39.432;-77.518;2023-01-26T14:21:57;98726.07;;;7.73;36.13
65013;BME280;51715;39.432;-77.518;2023-01-26T14:24:30;98731.86;;;7.73;35.28
65013;BME280;51715;39.432;-77.518;2023-01-26T14:26:59;98738.96;;;8.27;34.79
65013;BME280;51715;39.432;-77.518;2023-01-26T14:29:28;98739.99;;;7.39;35.21
65013;BME280;51715;39.432;-77.518;2023-01-26T14:31:58;98745.53;;;7.86;35.11
65013;BME280;51715;39.432;-77.518;2023-01-26T14:34:28;98759.09;;;7.54;35.71
65013;BME280;51715;39.432;-77.518;2023-01-26T14:37:13;98756.66;;;7.42;35.43
65013;BME280;51715;39.432;-77.518;2023-01-26T14:39:44;98763.62;;;6.97;36.30
65013;BME280;51715;39.432;-77.518;2023-01-26T14:42:14;98779.21;;;7.21;35.74
65013;BME280;51715;39.432;-77.518;2023-01-26T14:44:43;98781.26;;;6.07;37.58
65013;BME280;51715;39.432;-77.518;2023-01-26T14:47:20;98784.07;;;6.15;36.97
65013;BME280;51715;39.432;-77.518;2023-01-26T14:49:52;98797.90;;;6.62;35.78
65013;BME280;51715;39.432;-77.518;2023-01-26T14:52:25;98792.62;;;6.87;36.54
65013;BME280;51715;39.432;-77.518;2023-01-26T14:54:56;98801.85;;;6.98;34.85
65013;BME280;51715;39.432;-77.518;2023-01-26T14:57:26;98803.45;;;7.33;34.96
65013;BME280;51715;39.432;-77.518;2023-01-26T14:59:57;98802.86;;;7.22;35.13
65013;BME280;51715;39.432;-77.518;2023-01-26T15:02:33;98807.46;;;6.98;34.89
65013;BME280;51715;39.432;-77.518;2023-01-26T15:05:19;98814.35;;;8.18;33.64
65013;BME280;51715;39.432;-77.518;2023-01-26T15:07:50;98811.22;;;7.33;34.63
65013;BME280;51715;39.432;-77.518;2023-01-26T15:10:31;98819.23;;;7.29;34.62
65013;BME280;51715;39.432;-77.518;2023-01-26T15:13:04;98820.87;;;6.92;35.02
65013;BME280;51715;39.432;-77.518;2023-01-26T15:15:35;98812.16;;;7.46;34.20
65013;BME280;51715;39.432;-77.518;2023-01-26T15:18:16;98820.05;;;7.43;34.85
65013;BME280;51715;39.432;-77.518;2023-01-26T15:20:52;98823.42;;;7.74;34.61
65013;BME280;51715;39.432;-77.518;2023-01-26T15:23:25;98827.73;;;7.32;33.93
65013;BME280;51715;39.432;-77.518;2023-01-26T15:25:54;98824.16;;;7.57;34.25
65013;BME280;51715;39.432;-77.518;2023-01-26T15:28:25;98821.34;;;7.51;34.24
65013;BME280;51715;39.432;-77.518;2023-01-26T15:30:55;98828.55;;;7.45;34.06
65013;BME280;51715;39.432;-77.518;2023-01-26T15:33:56;98836.79;;;6.39;35.95
65013;BME280;51715;39.432;-77.518;2023-01-26T15:36:29;98834.56;;;7.31;35.01
65013;BME280;51715;39.432;-77.518;2023-01-26T15:39:01;98826.86;;;8.26;34.64
65013;BME280;51715;39.432;-77.518;2023-01-26T15:41:31;98824.92;;;10.20;31.79